createdAt,value
2018-12-17T00:01:03.458Z,74.63
2018-12-17T00:03:32.097Z,76.17
2018-12-17T00:06:00.317Z,73.97
2018-12-17T00:08:32.019Z,63.33
2018-12-17T00:10:59.196Z,67.20
2018-12-17T00:13:27.417Z,65.90
2018-12-17T00:15:55.583Z,61.27
2018-12-17T00:18:23.656Z,70.67
2018-12-17T00:20:51.857Z,67.73
2018-12-17T00:23:19.937Z,60.07
2018-12-17T00:25:48.076Z,65.87
2018-12-17T00:28:16.197Z,55.97
2018-12-17T00:30:44.339Z,61.97
2018-12-17T00:33:12.418Z,58.03
2018-12-17T00:35:40.577Z,51.70
2018-12-17T00:38:08.657Z,51.90
2018-12-17T00:40:40.998Z,57.43
2018-12-17T00:43:09.117Z,54.63
2018-12-17T00:45:37.250Z,49.43
2018-12-17T00:48:05.437Z,50.70
2018-12-17T00:50:33.537Z,44.87
2018-12-17T00:53:01.697Z,47.63
2018-12-17T00:55:29.857Z,48.93
2018-12-17T00:57:57.977Z,45.83
2018-12-17T01:00:26.137Z,44.23
2018-12-17T01:02:54.338Z,45.97
2018-12-17T01:05:22.417Z,44.07
2018-12-17T01:07:50.550Z,55.83
2018-12-17T01:10:19.077Z,53.53
2018-12-17T01:12:47.258Z,57.67
2018-12-17T01:15:15.440Z,61.37
2018-12-17T01:17:43.659Z,57.13
2018-12-17T01:20:11.817Z,52.03
2018-12-17T01:22:39.998Z,55.77
2018-12-17T01:25:08.217Z,56.90
2018-12-17T01:27:36.338Z,58.60
2018-12-17T01:30:05.459Z,50.67
2018-12-17T01:32:33.819Z,53.03
2018-12-17T01:35:01.929Z,54.77
2018-12-17T01:37:30.337Z,57.30
2018-12-17T01:39:58.400Z,58.07
2018-12-17T01:42:26.637Z,54.13
2018-12-17T01:44:54.617Z,59.20
2018-12-17T01:47:23.237Z,54.37
2018-12-17T01:49:51.321Z,50.20
2018-12-17T01:52:19.376Z,48.93
2018-12-17T01:54:47.477Z,46.30
2018-12-17T01:57:15.717Z,49.00
2018-12-17T01:59:43.757Z,51.57
2018-12-17T02:02:11.980Z,48.47
2018-12-17T02:04:41.657Z,47.70
2018-12-17T02:07:10.037Z,42.13
2018-12-17T02:09:38.278Z,37.93
2018-12-17T02:12:06.441Z,39.67
2018-12-17T02:14:36.739Z,30.80
2018-12-17T02:17:05.257Z,48.60
2018-12-17T02:19:33.637Z,49.17
2018-12-17T02:22:01.917Z,52.70
2018-12-17T02:24:30.236Z,52.50
2018-12-17T02:26:58.916Z,55.33
2018-12-17T02:29:27.359Z,47.20
2018-12-17T02:31:55.818Z,47.13
2018-12-17T02:34:25.077Z,47.40
2018-12-17T02:36:54.297Z,47.13
2018-12-17T02:39:22.637Z,43.27
2018-12-17T02:41:51.437Z,42.77
2018-12-17T02:44:21.298Z,46.13
2018-12-17T02:46:49.860Z,48.33
2018-12-17T02:49:18.678Z,44.47
2018-12-17T02:51:47.377Z,44.93
2018-12-17T02:54:16.300Z,42.80
2018-12-17T02:56:44.716Z,44.43
2018-12-17T02:59:13.337Z,45.87
2018-12-17T03:01:42.016Z,30.10
2018-12-17T03:04:13.176Z,39.67
2018-12-17T03:06:41.697Z,38.37
2018-12-17T03:09:10.017Z,29.47
2018-12-17T03:11:38.416Z,30.40
2018-12-17T03:14:06.859Z,35.63
2018-12-17T03:16:36.216Z,34.00
2018-12-17T03:19:04.597Z,46.43
2018-12-17T03:21:32.724Z,53.17
2018-12-17T03:24:01.359Z,50.10
2018-12-17T03:26:29.657Z,45.63
2018-12-17T03:28:58.038Z,47.27
2018-12-17T03:31:26.538Z,57.07
2018-12-17T03:33:55.217Z,51.70
2018-12-17T03:36:23.717Z,47.90
2018-12-17T03:38:52.057Z,46.83
2018-12-17T03:41:21.740Z,50.97
2018-12-17T03:43:50.677Z,45.97
2018-12-17T03:46:19.169Z,44.80
2018-12-17T03:48:47.597Z,46.07
2018-12-17T03:51:16.159Z,37.80
2018-12-17T03:53:44.829Z,46.10
2018-12-17T03:56:14.388Z,44.90
2018-12-17T03:58:43.128Z,41.40
2018-12-17T04:01:11.637Z,40.27
2018-12-17T04:03:41.257Z,41.13
2018-12-17T04:06:09.870Z,37.20
2018-12-17T04:08:38.136Z,43.87
2018-12-17T04:11:06.816Z,43.47
2018-12-17T04:13:35.636Z,42.43
2018-12-17T04:16:04.377Z,40.73
2018-12-17T04:18:33.156Z,41.37
2018-12-17T04:21:01.708Z,41.93
2018-12-17T04:23:30.577Z,37.30
2018-12-17T04:25:59.229Z,36.63
2018-12-17T04:28:28.028Z,39.73
2018-12-17T04:30:57.089Z,36.93
2018-12-17T04:33:26.368Z,39.70
2018-12-17T04:35:56.388Z,33.93
2018-12-17T04:38:25.249Z,35.53
2018-12-17T04:40:53.909Z,31.60
2018-12-17T04:43:22.618Z,36.10
2018-12-17T04:45:52.366Z,35.53
2018-12-17T04:48:21.377Z,34.97
2018-12-17T04:50:49.936Z,32.73
2018-12-17T04:53:19.676Z,30.63
2018-12-17T04:55:51.738Z,30.07
2018-12-17T04:58:20.229Z,31.23
2018-12-17T05:00:48.810Z,34.23
2018-12-17T05:03:17.149Z,36.67
2018-12-17T05:05:45.678Z,32.03
2018-12-17T05:08:14.188Z,32.57
2018-12-17T05:10:42.568Z,30.73
2018-12-17T05:13:11.029Z,31.30
2018-12-17T05:15:39.529Z,34.13
2018-12-17T05:18:07.951Z,31.93
2018-12-17T05:20:36.270Z,35.67
2018-12-17T05:23:04.528Z,31.50
2018-12-17T05:25:32.829Z,37.07
2018-12-17T05:28:01.189Z,36.53
2018-12-17T05:30:29.669Z,37.37
2018-12-17T05:32:58.517Z,35.77
2018-12-17T05:35:28.270Z,35.30
2018-12-17T05:37:57.097Z,30.73
2018-12-17T05:40:29.837Z,33.67
2018-12-17T05:42:59.478Z,31.67
2018-12-17T05:45:34.097Z,32.97
2018-12-17T05:48:02.909Z,31.80
2018-12-17T05:50:31.288Z,30.97
2018-12-17T05:52:59.469Z,31.40
2018-12-17T05:55:28.051Z,30.37
2018-12-17T05:57:56.416Z,30.43
2018-12-17T06:00:26.028Z,30.47
2018-12-17T06:02:54.316Z,31.77
2018-12-17T06:05:22.616Z,29.70
2018-12-17T06:07:50.896Z,35.93
2018-12-17T06:10:19.317Z,32.90
2018-12-17T06:12:48.156Z,31.23
2018-12-17T06:15:17.316Z,30.47
2018-12-17T06:17:49.865Z,28.90
2018-12-17T06:20:19.960Z,32.57
2018-12-17T06:22:51.576Z,27.33
2018-12-17T06:25:20.239Z,29.10
2018-12-17T06:27:48.877Z,32.97
2018-12-17T06:30:17.437Z,28.03
2018-12-17T06:32:45.877Z,35.67
2018-12-17T06:35:14.376Z,29.83
2018-12-17T06:37:43.997Z,30.43
2018-12-17T06:40:12.537Z,31.87
2018-12-17T06:42:40.877Z,35.07
2018-12-17T06:45:09.289Z,33.40
2018-12-17T06:47:37.577Z,30.27
2018-12-17T06:50:07.648Z,31.67
2018-12-17T06:52:36.268Z,30.63
2018-12-17T06:55:05.862Z,31.77
2018-12-17T06:57:34.576Z,31.73
2018-12-17T07:00:02.736Z,27.73
2018-12-17T07:02:31.137Z,27.70
2018-12-17T07:04:59.957Z,28.87
2018-12-17T07:07:28.079Z,32.17
2018-12-17T07:09:56.477Z,30.30
2018-12-17T07:12:24.916Z,31.87
2018-12-17T07:14:53.196Z,38.27
2018-12-17T07:17:21.649Z,32.83
2018-12-17T07:19:49.816Z,35.80
2018-12-17T07:22:17.998Z,35.20
2018-12-17T07:24:46.216Z,40.17
2018-12-17T07:27:14.456Z,35.77
2018-12-17T07:29:49.566Z,38.70
2018-12-17T07:32:13.177Z,39.53
2018-12-17T07:34:41.496Z,40.07
2018-12-17T07:37:09.836Z,41.17
2018-12-17T07:39:39.277Z,39.50
2018-12-17T07:42:07.497Z,40.50
2018-12-17T07:44:36.017Z,58.93
2018-12-17T07:47:04.157Z,42.33
2018-12-17T07:49:32.237Z,41.83
2018-12-17T07:52:00.377Z,39.60
2018-12-17T07:54:43.717Z,39.13
2018-12-17T07:57:11.829Z,46.57
2018-12-17T07:59:39.929Z,46.73
2018-12-17T08:02:08.117Z,43.97
2018-12-17T08:04:37.137Z,40.63
2018-12-17T08:07:05.697Z,42.77
2018-12-17T08:09:33.817Z,37.77
2018-12-17T08:12:01.989Z,37.80
2018-12-17T08:14:30.106Z,47.80
2018-12-17T08:17:02.099Z,46.13
2018-12-17T08:19:30.325Z,43.17
2018-12-17T08:21:58.391Z,43.50
2018-12-17T08:24:26.729Z,38.60
2018-12-17T08:26:54.857Z,37.73
2018-12-17T08:29:23.066Z,34.93
2018-12-17T08:31:51.181Z,36.80
2018-12-17T08:34:19.321Z,35.20
2018-12-17T08:36:47.425Z,35.70
2018-12-17T08:39:15.588Z,38.50
2018-12-17T08:41:43.725Z,36.43
2018-12-17T08:44:11.889Z,30.60
2018-12-17T08:46:40.009Z,33.90
2018-12-17T08:49:08.177Z,33.47
2018-12-17T08:51:36.351Z,30.80
2018-12-17T08:54:05.098Z,34.97
2018-12-17T08:56:33.205Z,31.23
2018-12-17T08:59:01.349Z,33.90
2018-12-17T09:01:29.557Z,34.73
2018-12-17T09:03:57.820Z,30.57
2018-12-17T09:06:25.971Z,30.17
2018-12-17T09:08:54.264Z,29.67
2018-12-17T09:11:22.377Z,29.47
2018-12-17T09:13:50.565Z,26.37
2018-12-17T09:16:18.685Z,29.43
2018-12-17T09:18:46.898Z,26.97
2018-12-17T09:21:15.105Z,26.67
2018-12-17T09:23:43.409Z,22.67
2018-12-17T09:26:11.509Z,23.93
2018-12-17T09:28:45.089Z,22.43
2018-12-17T09:31:13.250Z,22.40
2018-12-17T09:33:41.538Z,22.17
2018-12-17T09:36:09.760Z,22.53
2018-12-17T09:38:38.777Z,20.33
2018-12-17T09:41:06.985Z,20.73
2018-12-17T09:43:35.269Z,28.10
2018-12-17T09:46:03.330Z,25.63
2018-12-17T09:48:31.528Z,20.30
2018-12-17T09:50:59.642Z,19.27
2018-12-17T09:53:27.709Z,21.50
2018-12-17T09:55:56.177Z,13.17
2018-12-17T09:58:24.249Z,10.33
2018-12-17T10:00:52.309Z,8.17
2018-12-17T10:03:21.110Z,9.13
2018-12-17T10:05:49.252Z,9.03
2018-12-17T10:08:17.391Z,11.60
2018-12-17T10:10:45.669Z,8.20
2018-12-17T10:13:13.710Z,7.37
2018-12-17T10:15:41.929Z,10.70
2018-12-17T10:18:10.250Z,9.27
2018-12-17T10:20:38.392Z,6.83
2018-12-17T10:23:06.539Z,8.27
2018-12-17T10:25:34.749Z,6.03
2018-12-17T10:28:02.828Z,7.53
2018-12-17T10:30:32.666Z,7.30
2018-12-17T10:33:00.990Z,8.57
2018-12-17T10:35:29.149Z,8.73
2018-12-17T10:37:57.378Z,7.97
2018-12-17T10:40:25.697Z,8.93
2018-12-17T10:42:53.957Z,8.43
2018-12-17T10:45:22.119Z,7.43
2018-12-17T10:47:50.129Z,9.23
2018-12-17T10:50:18.317Z,5.67
2018-12-17T10:52:46.437Z,7.27
2018-12-17T10:55:14.637Z,13.50
2018-12-17T10:57:42.976Z,9.20
2018-12-17T11:00:16.687Z,7.30
2018-12-17T11:02:44.849Z,9.83
2018-12-17T11:05:15.989Z,6.60
2018-12-17T11:07:44.210Z,7.90
2018-12-17T11:10:12.286Z,6.60
2018-12-17T11:12:40.337Z,7.57
2018-12-17T11:15:10.258Z,9.33
2018-12-17T11:17:38.809Z,9.00
2018-12-17T11:20:09.200Z,9.07
2018-12-17T11:22:39.198Z,8.80
2018-12-17T11:25:07.689Z,6.80
2018-12-17T11:27:35.848Z,8.03
2018-12-17T11:30:05.597Z,11.80
2018-12-17T11:32:33.765Z,9.20
2018-12-17T11:35:01.830Z,8.57
2018-12-17T11:37:30.238Z,9.50
2018-12-17T11:39:58.288Z,12.00
2018-12-17T11:42:26.468Z,8.67
2018-12-17T11:44:54.613Z,11.07
2018-12-17T11:47:22.788Z,7.00
2018-12-17T11:49:51.029Z,10.87
2018-12-17T11:52:19.149Z,8.53
2018-12-17T11:54:47.276Z,8.57
2018-12-17T11:58:18.949Z,8.90
2018-12-17T12:00:54.240Z,7.67
2018-12-17T12:03:22.609Z,11.27
2018-12-17T12:05:50.713Z,10.77
2018-12-17T12:08:18.957Z,11.60
2018-12-17T12:10:46.988Z,9.23
2018-12-17T12:13:15.177Z,10.63
2018-12-17T12:15:43.358Z,14.57
2018-12-17T12:18:11.437Z,7.20
2018-12-17T12:20:39.428Z,9.10
2018-12-17T12:23:07.708Z,6.77
2018-12-17T12:25:35.798Z,8.50
2018-12-17T12:28:04.077Z,7.20
2018-12-17T12:30:32.249Z,6.87
2018-12-17T12:33:00.468Z,8.10
2018-12-17T12:35:28.572Z,5.20
2018-12-17T12:37:56.989Z,9.83
2018-12-17T12:40:25.649Z,6.57
2018-12-17T12:42:57.729Z,8.50
2018-12-17T12:45:25.869Z,11.17
2018-12-17T12:47:54.109Z,7.33
2018-12-17T12:50:38.989Z,5.53
2018-12-17T12:53:07.109Z,8.43
2018-12-17T12:55:35.269Z,8.13
2018-12-17T12:58:04.029Z,5.87
2018-12-17T13:00:35.709Z,6.30
2018-12-17T13:03:03.933Z,8.23
2018-12-17T13:05:35.668Z,5.40
2018-12-17T13:08:04.048Z,5.93
2018-12-17T13:10:32.119Z,6.13
2018-12-17T13:13:00.349Z,4.40
2018-12-17T13:15:28.529Z,9.17
2018-12-17T13:17:57.045Z,8.10
2018-12-17T13:20:25.471Z,7.27
2018-12-17T13:22:53.557Z,6.67
2018-12-17T13:25:26.772Z,4.87
2018-12-17T13:27:54.917Z,8.67
2018-12-17T13:30:23.229Z,6.03
2018-12-17T13:32:52.580Z,9.07
2018-12-17T13:35:20.877Z,8.20
2018-12-17T13:37:49.197Z,6.20
2018-12-17T13:40:17.369Z,8.97
2018-12-17T13:42:45.629Z,6.60
2018-12-17T13:45:16.050Z,7.17
2018-12-17T13:47:44.470Z,6.97
2018-12-17T13:50:18.590Z,10.50
2018-12-17T13:52:47.069Z,6.77
2018-12-17T13:55:15.737Z,8.30
2018-12-17T13:57:43.938Z,9.07
2018-12-17T14:00:17.377Z,10.20
2018-12-17T14:02:45.709Z,12.47
2018-12-17T14:05:13.985Z,11.97
2018-12-17T14:07:42.149Z,10.53
2018-12-17T14:10:16.457Z,10.13
2018-12-17T14:12:44.900Z,13.47
2018-12-17T14:15:13.277Z,11.30
2018-12-17T14:17:47.138Z,13.80
2018-12-17T14:20:21.057Z,12.67
2018-12-17T14:22:49.231Z,12.17
2018-12-17T14:25:17.520Z,13.30
2018-12-17T14:27:46.290Z,11.40
2018-12-17T14:44:34.790Z,15.47
2018-12-17T14:47:06.570Z,14.30
2018-12-17T14:49:34.753Z,17.90
2018-12-17T14:52:15.390Z,14.03
2018-12-17T14:58:47.370Z,15.63
2018-12-17T15:07:00.858Z,17.63
2018-12-17T15:09:51.066Z,16.17
2018-12-17T15:12:39.147Z,20.23
2018-12-17T15:15:09.530Z,13.90
2018-12-17T15:17:37.770Z,16.70
2018-12-17T15:20:06.799Z,17.23
2018-12-17T15:22:36.132Z,17.40
2018-12-17T15:25:04.843Z,14.40
2018-12-17T15:27:33.583Z,15.20
2018-12-17T15:30:01.910Z,18.50
2018-12-17T15:32:34.051Z,15.13
2018-12-17T15:35:02.506Z,16.03
2018-12-17T15:37:30.930Z,17.13
2018-12-17T15:39:59.109Z,18.67
2018-12-17T15:42:27.277Z,20.63
2018-12-17T15:44:55.370Z,21.60
2018-12-17T15:47:23.610Z,20.53
2018-12-17T15:49:52.120Z,20.43
2018-12-17T15:52:20.830Z,22.10
2018-12-17T15:54:48.929Z,23.60
2018-12-17T15:57:17.090Z,20.90
2018-12-17T15:59:45.698Z,25.60
2018-12-17T16:02:13.890Z,18.97
2018-12-17T16:04:42.241Z,29.57
2018-12-17T16:07:10.450Z,21.97
2018-12-17T16:09:38.972Z,31.47
2018-12-17T16:12:07.278Z,28.20
2018-12-17T16:14:35.378Z,24.17
2018-12-17T16:17:03.770Z,23.10
2018-12-17T16:19:33.028Z,30.53
2018-12-17T16:22:01.550Z,28.47
2018-12-17T16:24:30.078Z,33.43
2018-12-17T16:26:58.509Z,28.20
2018-12-17T16:29:27.219Z,29.60
2018-12-17T16:31:57.473Z,27.13
2018-12-17T16:34:26.138Z,29.90
2018-12-17T16:36:55.106Z,28.47
2018-12-17T16:39:23.490Z,27.07
2018-12-17T16:41:52.172Z,31.40
2018-12-17T16:44:20.618Z,28.63
2018-12-17T16:46:49.189Z,27.73
2018-12-17T16:49:17.577Z,30.00
2018-12-17T16:51:49.306Z,29.23
2018-12-17T16:54:17.660Z,27.60
2018-12-17T16:56:46.058Z,30.20
2018-12-17T16:59:14.965Z,29.67
2018-12-17T17:01:43.430Z,28.23
2018-12-17T17:04:11.878Z,26.77
2018-12-17T17:06:40.311Z,25.37
2018-12-17T17:09:08.978Z,26.87
2018-12-17T17:11:37.978Z,25.73
2018-12-17T17:14:06.450Z,28.43
2018-12-17T17:16:34.909Z,33.30
2018-12-17T17:19:03.398Z,35.90
2018-12-17T17:21:32.410Z,33.60
2018-12-17T17:24:00.878Z,36.80
2018-12-17T17:26:29.578Z,35.33
2018-12-17T17:28:58.118Z,37.67
2018-12-17T17:31:26.652Z,31.53
2018-12-17T17:33:55.130Z,34.43
2018-12-17T17:36:23.610Z,29.07
2018-12-17T17:38:52.418Z,39.50
2018-12-17T17:41:20.990Z,35.83
2018-12-17T17:43:49.379Z,32.77
2018-12-17T17:46:18.123Z,34.23
2018-12-17T17:48:46.698Z,30.47
2018-12-17T17:51:15.238Z,31.57
2018-12-17T17:53:43.750Z,30.30
2018-12-17T17:56:12.210Z,30.67
2018-12-17T17:58:41.010Z,30.63
2018-12-17T18:01:09.532Z,33.17
2018-12-17T18:03:38.286Z,33.80
2018-12-17T18:06:07.192Z,32.37
2018-12-17T18:08:35.859Z,32.50
2018-12-17T18:24:35.957Z,33.30
2018-12-17T18:29:47.110Z,38.57
2018-12-17T18:32:15.638Z,46.57
2018-12-17T18:34:44.271Z,39.47
2018-12-17T18:37:13.345Z,40.27
2018-12-17T18:39:42.629Z,41.67
2018-12-17T18:42:11.538Z,47.33
2018-12-17T18:44:40.350Z,45.93
2018-12-17T18:47:09.651Z,44.77
2018-12-17T18:49:51.189Z,43.80
2018-12-17T18:52:19.798Z,48.83
2018-12-17T18:54:49.458Z,41.50
2018-12-17T18:57:18.318Z,46.17
2018-12-17T18:59:46.850Z,46.03
2018-12-17T19:02:15.949Z,42.90
2018-12-17T19:04:48.990Z,46.27
2018-12-17T19:07:18.638Z,44.50
2018-12-17T19:09:47.140Z,45.97
2018-12-17T19:12:18.026Z,47.17
2018-12-17T19:14:46.769Z,45.30
2018-12-17T19:17:15.289Z,50.37
2018-12-17T19:19:44.057Z,46.73
2018-12-17T19:22:12.715Z,46.97
2018-12-17T19:24:41.298Z,52.40
2018-12-17T19:27:13.150Z,48.10
2018-12-17T19:29:41.790Z,50.03
2018-12-17T19:32:11.758Z,49.10
2018-12-17T19:34:47.111Z,48.97
2018-12-17T19:37:17.938Z,46.80
2018-12-17T19:39:50.330Z,52.27
2018-12-17T19:42:26.109Z,48.63
2018-12-17T19:45:00.020Z,51.20
2018-12-17T19:47:30.937Z,48.70
2018-12-17T20:04:57.357Z,53.77
2018-12-17T20:07:26.450Z,54.63
2018-12-17T20:10:00.011Z,53.90
2018-12-17T20:12:33.030Z,47.73
2018-12-17T20:15:02.878Z,50.67
2018-12-17T20:17:33.862Z,51.50
2018-12-17T20:20:03.298Z,53.17
2018-12-17T20:22:35.590Z,49.30
2018-12-17T20:25:09.550Z,49.80
2018-12-17T20:27:51.151Z,42.50
2018-12-17T20:47:44.818Z,46.97
2018-12-17T20:50:41.758Z,51.57
2018-12-17T20:53:15.850Z,49.03
2018-12-17T20:55:49.638Z,46.83
2018-12-17T20:58:32.937Z,46.07
2018-12-17T21:01:08.393Z,47.87
2018-12-17T21:03:40.580Z,53.57
2018-12-17T21:06:13.038Z,42.67
2018-12-17T21:11:36.478Z,47.73
2018-12-17T21:14:08.293Z,45.53
2018-12-17T21:16:36.898Z,50.67
2018-12-17T21:19:05.358Z,54.33
2018-12-17T21:21:33.858Z,49.67
2018-12-17T21:24:02.350Z,49.37
2018-12-17T21:26:30.938Z,50.53
2018-12-17T21:28:59.438Z,52.57
2018-12-17T21:31:28.010Z,44.43
2018-12-17T21:33:56.558Z,54.80
2018-12-17T21:36:25.138Z,49.57
2018-12-17T21:38:53.730Z,49.00
2018-12-17T21:41:22.259Z,46.83
2018-12-17T21:43:50.837Z,50.20
2018-12-17T21:46:19.397Z,46.93
2018-12-17T21:48:48.858Z,47.87
2018-12-17T21:51:18.318Z,46.17
2018-12-17T21:53:47.028Z,47.67
2018-12-17T21:56:15.429Z,49.40
2018-12-17T21:58:43.938Z,47.00
2018-12-17T22:01:16.110Z,49.50
2018-12-17T22:03:44.537Z,49.13
2018-12-17T22:06:12.949Z,46.97
2018-12-17T22:08:41.425Z,46.97
2018-12-17T22:11:09.883Z,47.93
2018-12-17T22:13:38.237Z,46.03
2018-12-17T22:16:06.557Z,57.73
2018-12-17T22:18:35.217Z,45.57
2018-12-17T22:21:03.309Z,52.40
2018-12-17T22:23:31.677Z,48.40
2018-12-17T22:25:59.957Z,48.00
2018-12-17T22:28:28.150Z,51.90
2018-12-17T22:30:56.805Z,53.13
2018-12-17T22:33:24.958Z,43.87
2018-12-17T22:35:53.069Z,43.33
2018-12-17T22:38:21.309Z,49.70
2018-12-17T22:40:49.529Z,49.37
2018-12-17T22:43:17.671Z,54.00
2018-12-17T22:45:45.728Z,44.20
2018-12-17T22:48:13.957Z,45.57
2018-12-17T22:50:42.172Z,46.77
2018-12-17T22:53:10.450Z,43.27
2018-12-17T22:55:38.548Z,50.10
2018-12-17T22:58:06.748Z,47.33
2018-12-17T23:00:34.948Z,48.93
2018-12-17T23:03:03.175Z,50.60
2018-12-17T23:05:31.336Z,46.67
2018-12-17T23:07:59.828Z,44.07
2018-12-17T23:10:44.835Z,47.73
2018-12-17T23:13:23.875Z,46.40
2018-12-17T23:16:03.112Z,46.67
2018-12-17T23:18:29.857Z,45.47
2018-12-17T23:20:58.008Z,46.80
2018-12-17T23:23:26.378Z,49.80
2018-12-17T23:25:54.516Z,50.07
2018-12-17T23:28:22.696Z,47.37
2018-12-17T23:30:50.796Z,47.07
2018-12-17T23:33:18.868Z,42.27
2018-12-17T23:35:46.958Z,46.67
2018-12-17T23:38:15.016Z,43.97
2018-12-17T23:40:43.151Z,51.37
2018-12-17T23:43:11.316Z,46.37
2018-12-17T23:45:39.367Z,43.47
2018-12-17T23:48:07.467Z,41.20
2018-12-17T23:50:35.715Z,39.97
2018-12-17T23:53:03.816Z,47.10
2018-12-17T23:55:31.998Z,40.93
2018-12-17T23:58:00.068Z,45.33
